Riverton, Indiana
Current Conditions -  °F | °C
As of 5:35 AM on Thursday 27 Nov 2014 (Local Time) from KRSV Reporting Station
Broken Clouds Broken Clouds  
Wind Chill: -8°   Ceiling: 2100
Heat Index: -2°   Visibility: 10mi
Dew Point: -5°   Wind: 13mph
Humidity: 84%   Direction: 330°NNW
Pressure: 30.3"   Gusts: NA
Location:  39.0138°N, 87.523°W
Report Text: KRSV 271035Z AUTO 33011KT 10SM BKN021 M02/M04 A3030 RMK AO2 T10211045
Loading
Personal Weather Stations






























Interactive Weather Map New forecast layout! Learn more

10-Day Weather Forecast

Advertisements
Track Severe Weather on mobile